createdAt,value
2022-10-30T00:01:23.029Z,8.17
2022-10-30T00:03:50.687Z,8.03
2022-10-30T00:06:21.228Z,8.57
2022-10-30T00:08:48.879Z,7.20
2022-10-30T00:11:16.933Z,7.10
2022-10-30T00:13:45.686Z,7.67
2022-10-30T00:16:13.443Z,8.20
2022-10-30T00:18:43.216Z,7.10
2022-10-30T00:21:13.657Z,7.57
2022-10-30T00:23:47.145Z,7.90
2022-10-30T00:26:15.187Z,7.03
2022-10-30T00:28:43.353Z,7.33
2022-10-30T00:31:12.112Z,7.97
2022-10-30T00:33:39.743Z,8.00
2022-10-30T00:36:08.203Z,7.60
2022-10-30T00:38:36.411Z,7.67
2022-10-30T00:41:05.730Z,7.63
2022-10-30T00:43:36.327Z,7.50
2022-10-30T00:46:13.540Z,7.97
2022-10-30T00:48:42.433Z,7.30
2022-10-30T00:51:12.629Z,8.13
2022-10-30T00:53:41.421Z,7.87
2022-10-30T00:56:13.199Z,7.40
2022-10-30T00:58:46.134Z,8.47
2022-10-30T01:01:20.830Z,8.37
2022-10-30T01:03:59.062Z,7.57
2022-10-30T01:06:29.272Z,8.00
2022-10-30T01:09:00.000Z,8.00
2022-10-30T01:11:30.184Z,8.97
2022-10-30T01:14:02.144Z,8.30
2022-10-30T01:16:58.916Z,8.17
2022-10-30T01:19:40.750Z,8.00
2022-10-30T01:22:25.021Z,6.90
2022-10-30T01:25:05.647Z,7.00
2022-10-30T01:27:44.391Z,8.80
2022-10-30T01:30:23.348Z,8.27
2022-10-30T01:33:09.259Z,7.20
2022-10-30T01:35:44.192Z,7.47
2022-10-30T01:38:18.681Z,7.60
2022-10-30T01:40:49.305Z,7.47
2022-10-30T01:43:18.690Z,7.77
2022-10-30T01:46:17.026Z,7.17
2022-10-30T01:49:05.966Z,6.40
2022-10-30T01:51:50.307Z,7.00
2022-10-30T01:54:28.719Z,7.80
2022-10-30T01:57:04.677Z,7.83
2022-10-30T01:59:39.313Z,7.43
2022-10-30T02:02:08.949Z,7.47
2022-10-30T02:04:37.921Z,9.00
2022-10-30T02:07:06.697Z,7.83
2022-10-30T02:09:41.942Z,8.20
2022-10-30T02:12:10.324Z,8.10
2022-10-30T02:14:42.939Z,6.53
2022-10-30T02:17:12.554Z,7.93
2022-10-30T02:19:42.760Z,7.07
2022-10-30T02:22:12.708Z,7.67
2022-10-30T02:24:40.638Z,7.07
2022-10-30T02:27:08.543Z,6.90
2022-10-30T02:29:36.872Z,6.90
2022-10-30T02:32:07.212Z,6.30
2022-10-30T02:34:37.094Z,7.27
2022-10-30T02:37:05.080Z,7.13
2022-10-30T02:39:34.084Z,8.33
2022-10-30T02:42:02.794Z,7.50
2022-10-30T02:44:30.832Z,7.83
2022-10-30T02:46:58.559Z,8.30
2022-10-30T02:49:26.653Z,7.10
2022-10-30T02:51:54.465Z,7.67
2022-10-30T02:54:22.324Z,7.87
2022-10-30T02:56:51.996Z,6.97
2022-10-30T02:59:20.553Z,7.13
2022-10-30T03:01:50.968Z,6.60
2022-10-30T03:04:18.765Z,6.97
2022-10-30T03:06:48.132Z,7.97
2022-10-30T03:09:15.841Z,6.40
2022-10-30T03:11:44.715Z,7.10
2022-10-30T03:14:13.730Z,6.53
2022-10-30T03:16:41.408Z,6.80
2022-10-30T03:19:10.047Z,6.87
2022-10-30T03:21:37.913Z,6.13
2022-10-30T03:24:06.496Z,7.07
2022-10-30T03:26:34.946Z,6.60
2022-10-30T03:29:07.343Z,6.10
2022-10-30T03:31:37.095Z,6.43
2022-10-30T03:34:21.674Z,6.60
2022-10-30T03:36:49.490Z,6.20
2022-10-30T03:39:17.458Z,7.20
2022-10-30T03:41:46.878Z,8.13
2022-10-30T03:44:14.559Z,6.10
2022-10-30T03:46:43.598Z,6.47
2022-10-30T03:49:33.657Z,6.40
2022-10-30T03:52:04.630Z,6.17
2022-10-30T03:54:32.654Z,7.10
2022-10-30T03:57:00.987Z,6.27
2022-10-30T03:59:35.240Z,7.73
2022-10-30T04:02:32.134Z,7.03
2022-10-30T04:04:59.853Z,6.93
2022-10-30T04:07:28.318Z,7.77
2022-10-30T04:09:55.954Z,6.43
2022-10-30T04:12:23.974Z,6.83
2022-10-30T04:14:51.804Z,5.80
2022-10-30T04:17:20.126Z,6.47
2022-10-30T04:19:49.690Z,6.87
2022-10-30T04:22:17.451Z,7.30
2022-10-30T04:24:46.301Z,6.23
2022-10-30T04:27:13.935Z,6.77
2022-10-30T04:29:42.550Z,7.47
2022-10-30T04:32:11.559Z,6.70
2022-10-30T04:34:39.583Z,6.63
2022-10-30T04:37:09.504Z,7.13
2022-10-30T04:39:41.029Z,6.67
2022-10-30T04:42:18.246Z,6.10
2022-10-30T04:44:45.931Z,6.00
2022-10-30T04:47:15.837Z,6.50
2022-10-30T04:49:44.192Z,6.50
2022-10-30T04:52:13.563Z,6.90
2022-10-30T04:54:42.131Z,6.93
2022-10-30T04:57:09.994Z,6.47
2022-10-30T04:59:39.019Z,6.00
2022-10-30T05:02:06.808Z,8.00
2022-10-30T05:04:35.160Z,7.30
2022-10-30T05:07:03.672Z,7.00
2022-10-30T05:09:32.913Z,6.50
2022-10-30T05:12:00.567Z,6.30
2022-10-30T05:14:34.669Z,7.13
2022-10-30T05:17:02.779Z,6.20
2022-10-30T05:19:30.434Z,6.47
2022-10-30T05:21:58.214Z,6.57
2022-10-30T05:24:25.850Z,5.93
2022-10-30T05:26:54.889Z,7.13
2022-10-30T05:29:22.808Z,6.90
2022-10-30T05:31:50.732Z,6.63
2022-10-30T05:34:18.386Z,7.37
2022-10-30T05:36:49.145Z,6.93
2022-10-30T05:39:17.389Z,6.10
2022-10-30T05:41:48.614Z,5.90
2022-10-30T05:44:34.333Z,6.73
2022-10-30T05:47:07.470Z,7.13
2022-10-30T05:49:36.377Z,6.53
2022-10-30T05:52:07.482Z,5.73
2022-10-30T05:54:36.368Z,7.30
2022-10-30T05:57:30.603Z,6.57
2022-10-30T05:59:59.868Z,6.70
2022-10-30T06:02:27.608Z,6.20
2022-10-30T06:04:55.335Z,6.60
2022-10-30T06:07:23.043Z,6.10
2022-10-30T06:09:50.751Z,5.77
2022-10-30T06:12:18.515Z,6.50
2022-10-30T06:15:14.491Z,6.43
2022-10-30T06:17:42.085Z,6.50
2022-10-30T06:20:16.258Z,6.10
2022-10-30T06:23:04.614Z,6.33
2022-10-30T06:25:47.530Z,6.80
2022-10-30T06:28:23.107Z,7.20
2022-10-30T06:30:54.757Z,6.70
2022-10-30T06:33:22.775Z,7.07
2022-10-30T06:35:52.576Z,6.97
2022-10-30T06:38:20.842Z,6.87
2022-10-30T06:40:50.327Z,7.17
2022-10-30T06:43:23.788Z,6.67
2022-10-30T06:48:42.124Z,6.10
2022-10-30T06:51:10.133Z,7.40
2022-10-30T06:53:40.831Z,6.17
2022-10-30T06:56:26.891Z,7.40
2022-10-30T06:59:13.001Z,6.60
2022-10-30T07:01:57.302Z,6.30
2022-10-30T07:04:35.172Z,7.77
2022-10-30T07:07:02.948Z,7.40
2022-10-30T07:09:31.285Z,6.20
2022-10-30T07:12:04.057Z,7.27
2022-10-30T07:15:10.255Z,6.90
2022-10-30T07:17:59.732Z,6.27
2022-10-30T07:20:30.297Z,7.33
2022-10-30T07:22:58.509Z,7.10
2022-10-30T07:25:26.480Z,8.07
2022-10-30T07:28:04.664Z,7.27
2022-10-30T07:30:43.393Z,7.03
2022-10-30T07:33:35.310Z,7.07
2022-10-30T07:36:22.096Z,8.20
2022-10-30T07:39:02.812Z,7.10
2022-10-30T07:41:42.719Z,6.90
2022-10-30T07:44:31.340Z,7.00
2022-10-30T07:47:34.297Z,6.73
2022-10-30T07:50:30.955Z,5.73
2022-10-30T07:52:58.826Z,8.90
2022-10-30T07:55:29.385Z,7.03
2022-10-30T07:58:19.941Z,6.97
2022-10-30T08:01:05.426Z,6.90
2022-10-30T08:03:34.936Z,6.00
2022-10-30T08:06:20.148Z,6.80
2022-10-30T08:08:52.492Z,6.53
2022-10-30T08:11:29.951Z,6.43
2022-10-30T08:13:59.718Z,6.30
2022-10-30T08:16:27.710Z,6.93
2022-10-30T08:18:55.539Z,6.90
2022-10-30T08:21:27.412Z,6.83
2022-10-30T08:24:06.969Z,6.37
2022-10-30T08:26:36.216Z,7.10
2022-10-30T08:29:04.565Z,6.70
2022-10-30T08:31:32.592Z,5.90
2022-10-30T08:34:03.280Z,6.27
2022-10-30T08:36:38.317Z,7.97
2022-10-30T08:39:06.327Z,7.07
2022-10-30T08:41:44.823Z,6.00
2022-10-30T08:44:13.213Z,6.10
2022-10-30T08:46:59.602Z,6.53
2022-10-30T08:49:27.593Z,5.73
2022-10-30T08:51:59.285Z,5.73
2022-10-30T08:54:27.228Z,6.43
2022-10-30T08:56:56.002Z,6.13
2022-10-30T08:59:25.114Z,7.23
2022-10-30T09:01:56.222Z,7.20
2022-10-30T09:04:27.263Z,5.10
2022-10-30T09:07:17.156Z,5.73
2022-10-30T09:10:17.062Z,5.33
2022-10-30T09:12:44.748Z,5.77
2022-10-30T09:15:13.125Z,4.90
2022-10-30T09:17:57.800Z,4.63
2022-10-30T09:20:26.760Z,4.50
2022-10-30T09:22:56.365Z,5.80
2022-10-30T09:25:24.874Z,5.20
2022-10-30T09:28:12.907Z,4.30
2022-10-30T09:31:07.156Z,4.80
2022-10-30T09:33:38.251Z,5.00
2022-10-30T09:36:26.668Z,6.10
2022-10-30T09:38:57.723Z,5.17
2022-10-30T09:42:03.520Z,5.30
2022-10-30T09:45:08.046Z,4.20
2022-10-30T09:47:50.078Z,5.17
2022-10-30T09:50:26.504Z,5.63
2022-10-30T09:53:08.567Z,5.27
2022-10-30T09:55:44.252Z,5.97
2022-10-30T09:58:31.547Z,6.40
2022-10-30T10:01:16.745Z,4.70
2022-10-30T10:04:02.195Z,4.90
2022-10-30T10:06:54.858Z,4.90
2022-10-30T10:09:46.459Z,4.20
2022-10-30T10:12:31.376Z,4.10
2022-10-30T10:15:01.629Z,4.80
2022-10-30T10:17:34.998Z,4.10
2022-10-30T10:20:06.041Z,4.10
2022-10-30T10:22:43.453Z,3.23
2022-10-30T10:25:16.832Z,4.07
2022-10-30T10:27:56.734Z,3.43
2022-10-30T10:30:25.907Z,3.80
2022-10-30T10:33:26.138Z,4.30
2022-10-30T10:36:18.606Z,4.20
2022-10-30T10:39:03.111Z,4.70
2022-10-30T10:41:45.251Z,3.67
2022-10-30T10:44:30.964Z,4.47
2022-10-30T10:47:27.899Z,4.87
2022-10-30T10:50:16.038Z,4.73
2022-10-30T10:52:49.316Z,3.90
2022-10-30T10:55:21.354Z,4.70
2022-10-30T10:57:49.682Z,4.10
2022-10-30T11:00:21.585Z,3.93
2022-10-30T11:02:56.246Z,5.27
2022-10-30T11:05:33.475Z,4.13
2022-10-30T11:08:11.458Z,3.70
2022-10-30T11:10:40.067Z,3.23
2022-10-30T11:13:08.173Z,3.50
2022-10-30T11:15:48.651Z,4.50
2022-10-30T11:18:17.094Z,3.30
2022-10-30T11:20:54.948Z,4.00
2022-10-30T11:23:40.320Z,4.10
2022-10-30T11:26:28.575Z,2.80
2022-10-30T11:28:59.584Z,3.27
2022-10-30T11:31:34.757Z,3.60
2022-10-30T11:34:29.540Z,3.20
2022-10-30T11:36:57.327Z,3.50
2022-10-30T11:39:27.468Z,4.80
2022-10-30T11:42:01.781Z,3.03
2022-10-30T11:44:33.308Z,3.20
2022-10-30T11:47:03.736Z,2.97
2022-10-30T11:49:38.295Z,2.80
2022-10-30T11:52:08.037Z,3.60
2022-10-30T11:54:39.359Z,2.90
2022-10-30T11:57:20.684Z,3.20
2022-10-30T11:59:52.039Z,2.77
2022-10-30T12:02:28.214Z,2.47
2022-10-30T12:04:57.839Z,3.93
2022-10-30T12:07:29.238Z,3.33
2022-10-30T12:09:59.360Z,3.60
2022-10-30T12:12:31.614Z,3.10
2022-10-30T12:15:10.936Z,3.73
2022-10-30T12:17:41.244Z,3.60
2022-10-30T12:20:15.853Z,4.73
2022-10-30T12:22:44.556Z,3.57
2022-10-30T12:25:24.328Z,3.70
2022-10-30T12:27:59.242Z,3.00
2022-10-30T12:30:30.337Z,3.37
2022-10-30T12:33:05.417Z,3.80
2022-10-30T12:35:42.050Z,3.57
2022-10-30T12:38:16.518Z,3.30
2022-10-30T12:40:52.416Z,3.73
2022-10-30T12:43:25.581Z,3.50
2022-10-30T12:45:57.968Z,3.70
2022-10-30T12:48:33.232Z,4.10
2022-10-30T12:51:16.023Z,3.00
2022-10-30T12:53:53.954Z,3.67
2022-10-30T12:56:28.628Z,4.90
2022-10-30T12:59:04.275Z,3.20
2022-10-30T13:01:36.532Z,3.37
2022-10-30T13:04:11.604Z,2.93
2022-10-30T13:06:46.156Z,3.37
2022-10-30T13:09:21.760Z,2.93
2022-10-30T13:11:56.756Z,3.50
2022-10-30T13:14:32.771Z,3.83
2022-10-30T13:17:01.077Z,2.97
2022-10-30T13:19:30.216Z,2.80
2022-10-30T13:22:04.151Z,4.20
2022-10-30T13:24:45.399Z,2.93
2022-10-30T13:27:18.232Z,2.77
2022-10-30T13:29:52.547Z,3.63
2022-10-30T13:32:40.810Z,2.80
2022-10-30T13:35:28.739Z,3.53
2022-10-30T13:38:04.246Z,4.70
2022-10-30T13:40:37.305Z,4.07
2022-10-30T13:43:18.672Z,3.80
2022-10-30T13:45:57.195Z,4.37
2022-10-30T13:48:38.499Z,4.13
2022-10-30T13:51:19.734Z,8.00
2022-10-30T13:53:52.947Z,6.20
2022-10-30T13:56:22.424Z,4.57
2022-10-30T13:59:00.133Z,4.20
2022-10-30T14:01:35.882Z,5.23
2022-10-30T14:04:08.729Z,4.97
2022-10-30T14:06:43.613Z,5.00
2022-10-30T14:09:21.486Z,4.70
2022-10-30T14:11:49.586Z,4.80
2022-10-30T14:14:31.688Z,5.50
2022-10-30T14:17:12.085Z,4.23
2022-10-30T14:20:16.013Z,5.33
2022-10-30T14:23:09.225Z,5.20
2022-10-30T14:25:37.102Z,5.37
2022-10-30T14:28:05.706Z,5.07
2022-10-30T14:30:35.414Z,4.70
2022-10-30T14:33:03.690Z,5.67
2022-10-30T14:35:40.994Z,4.70
2022-10-30T14:38:37.279Z,4.93
2022-10-30T14:41:57.089Z,6.17
2022-10-30T14:44:44.268Z,5.83
2022-10-30T14:47:45.267Z,5.30
2022-10-30T14:50:21.037Z,4.77
2022-10-30T14:53:03.197Z,5.10
2022-10-30T14:55:36.554Z,4.50
2022-10-30T14:58:20.584Z,3.80
2022-10-30T15:00:48.426Z,4.40
2022-10-30T15:03:31.657Z,4.70
2022-10-30T15:06:04.607Z,3.87
2022-10-30T15:08:49.756Z,4.93
2022-10-30T15:11:31.505Z,5.40
2022-10-30T15:14:02.139Z,5.23
2022-10-30T15:16:31.267Z,4.50
2022-10-30T15:19:02.740Z,5.47
2022-10-30T15:21:34.214Z,4.63
2022-10-30T15:24:02.549Z,4.80
2022-10-30T15:26:36.839Z,5.67
2022-10-30T15:29:06.595Z,4.80
2022-10-30T15:31:34.362Z,5.00
2022-10-30T15:34:02.304Z,5.20
2022-10-30T15:36:35.793Z,4.63
2022-10-30T15:39:11.130Z,5.47
2022-10-30T15:41:44.910Z,4.93
2022-10-30T15:46:50.288Z,4.87
2022-10-30T15:49:30.983Z,4.63
2022-10-30T15:52:00.699Z,4.10
2022-10-30T15:54:30.329Z,4.57
2022-10-30T15:57:36.954Z,4.87
2022-10-30T15:59:57.564Z,4.60
2022-10-30T16:02:27.912Z,4.73
2022-10-30T16:04:57.107Z,6.27
2022-10-30T16:07:27.244Z,5.27
2022-10-30T16:09:56.677Z,5.27
2022-10-30T16:12:31.493Z,5.37
2022-10-30T16:15:07.138Z,5.13
2022-10-30T16:17:36.518Z,4.87
2022-10-30T16:20:06.245Z,5.73
2022-10-30T16:22:39.968Z,5.57
2022-10-30T16:25:11.726Z,5.27
2022-10-30T16:27:46.429Z,5.00
2022-10-30T16:30:16.315Z,5.40
2022-10-30T16:32:52.221Z,5.57
2022-10-30T16:35:23.319Z,4.30
2022-10-30T16:37:51.761Z,5.23
2022-10-30T16:40:24.976Z,4.67
2022-10-30T16:42:58.160Z,4.00
2022-10-30T16:45:51.834Z,4.30
2022-10-30T16:48:28.192Z,4.70
2022-10-30T16:51:02.000Z,4.60
2022-10-30T16:53:31.575Z,5.10
2022-10-30T16:56:00.544Z,4.57
2022-10-30T16:58:32.312Z,4.77
2022-10-30T17:01:05.852Z,7.30
2022-10-30T17:03:39.160Z,6.60
2022-10-30T17:06:24.606Z,5.27
2022-10-30T17:08:54.685Z,5.40
2022-10-30T17:11:36.633Z,5.47
2022-10-30T17:14:16.923Z,5.17
2022-10-30T17:16:53.816Z,6.00
2022-10-30T17:19:46.084Z,4.83
2022-10-30T17:22:17.955Z,4.83
2022-10-30T17:24:47.499Z,4.33
2022-10-30T17:27:47.450Z,5.30
2022-10-30T17:30:48.429Z,6.50
2022-10-30T17:33:35.075Z,7.67
2022-10-30T17:36:03.940Z,7.07
2022-10-30T17:38:32.041Z,8.70
2022-10-30T17:41:00.411Z,7.77
2022-10-30T17:43:33.283Z,7.33
2022-10-30T17:46:02.396Z,7.13
2022-10-30T17:48:31.288Z,7.60
2022-10-30T17:50:59.839Z,8.33
2022-10-30T17:53:28.098Z,7.40
2022-10-30T17:56:03.542Z,7.87
2022-10-30T17:58:34.152Z,7.70
2022-10-30T18:01:05.704Z,6.63
2022-10-30T18:03:34.882Z,7.40
2022-10-30T18:06:04.555Z,6.47
2022-10-30T18:08:34.389Z,6.90
2022-10-30T18:11:02.723Z,6.87
2022-10-30T18:13:30.666Z,6.70
2022-10-30T18:15:59.798Z,7.07
2022-10-30T18:18:29.979Z,7.10
2022-10-30T18:20:57.940Z,6.33
2022-10-30T18:26:16.120Z,5.90
2022-10-30T18:33:17.146Z,5.87
2022-10-30T18:40:01.328Z,6.57
2022-10-30T18:42:30.434Z,6.30
2022-10-30T18:44:58.996Z,6.90
2022-10-30T18:47:26.764Z,8.77
2022-10-30T18:49:57.928Z,7.63
2022-10-30T18:52:26.005Z,7.67
2022-10-30T18:54:55.397Z,7.90
2022-10-30T18:57:24.679Z,7.10
2022-10-30T18:59:53.243Z,7.30
2022-10-30T19:02:24.571Z,7.00
2022-10-30T19:04:55.289Z,7.50
2022-10-30T19:07:23.734Z,6.90
2022-10-30T19:09:52.810Z,7.80
2022-10-30T19:12:20.629Z,7.47
2022-10-30T19:14:50.905Z,8.00
2022-10-30T19:17:18.728Z,7.63
2022-10-30T19:19:46.850Z,7.37
2022-10-30T19:22:15.385Z,7.17
2022-10-30T19:24:44.400Z,5.97
2022-10-30T19:27:14.406Z,6.53
2022-10-30T19:29:43.747Z,6.43
2022-10-30T19:32:13.424Z,8.40
2022-10-30T19:34:45.908Z,6.60
2022-10-30T19:37:13.628Z,8.00
2022-10-30T19:39:43.946Z,8.90
2022-10-30T19:42:12.569Z,8.17
2022-10-30T19:44:40.873Z,7.10
2022-10-30T19:47:12.753Z,7.60
2022-10-30T19:49:40.542Z,7.37
2022-10-30T19:52:09.870Z,7.37
2022-10-30T19:54:37.758Z,7.20
2022-10-30T19:57:06.928Z,7.43
2022-10-30T19:59:36.500Z,7.43
2022-10-30T20:02:04.865Z,6.20
2022-10-30T20:04:34.251Z,7.00
2022-10-30T20:07:02.807Z,6.53
2022-10-30T20:09:32.009Z,6.50
2022-10-30T20:12:00.343Z,8.60
2022-10-30T20:14:28.384Z,7.43
2022-10-30T20:16:56.458Z,7.10
2022-10-30T20:19:29.232Z,7.53
2022-10-30T20:21:58.991Z,7.27
2022-10-30T20:24:27.929Z,7.60
2022-10-30T20:26:59.975Z,7.57
2022-10-30T20:29:28.478Z,7.70
2022-10-30T20:31:56.210Z,7.00
2022-10-30T20:34:25.016Z,6.10
2022-10-30T20:36:53.722Z,7.50
2022-10-30T20:39:23.385Z,7.10
2022-10-30T20:41:51.490Z,7.23
2022-10-30T20:44:19.650Z,8.53
2022-10-30T20:46:50.684Z,9.03
2022-10-30T20:49:18.672Z,8.07
2022-10-30T20:51:47.257Z,7.90
2022-10-30T20:54:15.590Z,7.77
2022-10-30T20:56:45.449Z,7.47
2022-10-30T20:59:13.342Z,7.37
2022-10-30T21:01:42.182Z,6.60
2022-10-30T21:04:10.805Z,6.77
2022-10-30T21:06:39.296Z,6.10
2022-10-30T21:09:07.453Z,7.27
2022-10-30T21:11:36.536Z,7.40
2022-10-30T21:14:06.060Z,7.87
2022-10-30T21:16:34.328Z,8.00
2022-10-30T21:19:02.452Z,7.53
2022-10-30T21:21:30.447Z,6.67
2022-10-30T21:23:58.421Z,7.13
2022-10-30T21:26:26.449Z,7.40
2022-10-30T21:28:54.683Z,7.90
2022-10-30T21:31:26.086Z,7.07
2022-10-30T21:33:54.134Z,6.93
2022-10-30T21:36:22.155Z,7.60
2022-10-30T21:38:50.671Z,7.80
2022-10-30T21:41:20.790Z,8.40
2022-10-30T21:43:53.745Z,7.20
2022-10-30T21:46:24.912Z,7.53
2022-10-30T21:48:54.122Z,9.60
2022-10-30T21:51:24.664Z,8.20
2022-10-30T21:53:53.817Z,7.90
2022-10-30T21:56:24.635Z,7.83
2022-10-30T21:58:53.213Z,7.00
2022-10-30T22:01:24.890Z,8.03
2022-10-30T22:03:53.645Z,9.80
2022-10-30T22:06:23.572Z,8.40
2022-10-30T22:08:54.988Z,8.87
2022-10-30T22:11:25.030Z,7.60
2022-10-30T22:13:55.125Z,6.80
2022-10-30T22:16:26.213Z,7.10
2022-10-30T22:18:54.340Z,7.20
2022-10-30T22:21:22.212Z,7.40
2022-10-30T22:23:50.615Z,7.50
2022-10-30T22:26:20.219Z,8.30
2022-10-30T22:28:48.736Z,7.63
2022-10-30T22:31:18.693Z,7.10
2022-10-30T22:33:48.757Z,7.37
2022-10-30T22:36:18.954Z,7.43
2022-10-30T22:38:47.639Z,6.73
2022-10-30T22:41:18.019Z,7.13
2022-10-30T22:43:48.495Z,7.07
2022-10-30T22:46:18.110Z,6.30
2022-10-30T22:48:47.997Z,7.43
2022-10-30T22:51:17.508Z,6.87
2022-10-30T22:53:46.988Z,6.77
2022-10-30T22:56:18.574Z,7.50
2022-10-30T22:58:47.983Z,6.83
2022-10-30T23:01:17.939Z,7.40
2022-10-30T23:03:48.210Z,6.70
2022-10-30T23:06:16.990Z,7.47
2022-10-30T23:08:45.892Z,7.93
2022-10-30T23:11:14.803Z,7.73
2022-10-30T23:13:43.212Z,8.00
2022-10-30T23:16:15.204Z,7.20
2022-10-30T23:18:43.577Z,7.40
2022-10-30T23:21:15.822Z,6.57
2022-10-30T23:23:44.698Z,8.57
2022-10-30T23:26:14.355Z,7.23
2022-10-30T23:28:42.219Z,7.27
2022-10-30T23:31:11.626Z,7.53
2022-10-30T23:33:39.500Z,7.50
2022-10-30T23:36:08.637Z,6.73
2022-10-30T23:38:37.895Z,7.00
2022-10-30T23:41:05.747Z,7.00
2022-10-30T23:43:33.784Z,7.07
2022-10-30T23:46:02.276Z,6.43
2022-10-30T23:48:30.460Z,8.17
2022-10-30T23:50:58.301Z,7.43
2022-10-30T23:53:26.581Z,7.70
2022-10-30T23:55:56.381Z,6.90
2022-10-30T23:58:24.668Z,7.97
